Time;durP1;ratioP1;P1;durP2;ratioP2;P2;SDS_P1;SDS_P2;PMS_P1;PMS_P2;Temp;Humidity;BMP_temperature;BMP_pressure;BME280_temperature;BME280_humidity;BME280_pressure;Samples;Min_cycle;Max_cycle;Signal;HPM_P1;HPM_P2
2023/09/04 00:01:45;;;;;;;2.67;1.70;;;22.90;99.90;;;;;;4266114;27;20433;-60
2023/09/04 00:03:47;;;;;;;5.00;1.92;;;23.00;99.90;;;;;;4266824;27;20055;-59
2023/09/04 00:05:50;;;;;;;3.45;1.95;;;22.90;99.90;;;;;;4267213;27;20061;-59
2023/09/04 00:07:52;;;;;;;4.03;1.77;;;22.90;99.90;;;;;;4267019;27;20118;-56
2023/09/04 00:09:54;;;;;;;4.10;1.95;;;22.80;99.90;;;;;;4267193;27;20463;-56
2023/09/04 00:11:57;;;;;;;3.35;2.00;;;22.80;99.90;;;;;;4266035;27;20435;-62
2023/09/04 00:14:00;;;;;;;6.85;1.70;;;22.80;99.90;;;;;;4266820;27;20444;-59
2023/09/04 00:16:02;;;;;;;2.53;1.80;;;22.80;99.90;;;;;;4267046;27;20045;-59
2023/09/04 00:18:04;;;;;;;3.33;1.80;;;22.80;99.90;;;;;;4266985;27;20091;-61
2023/09/04 00:20:08;;;;;;;4.07;1.90;;;22.80;99.90;;;;;;4266810;27;20063;-57
2023/09/04 00:22:10;;;;;;;2.95;1.85;;;22.70;99.90;;;;;;4266020;27;20113;-58
2023/09/04 00:24:12;;;;;;;4.10;1.75;;;22.70;99.90;;;;;;4266923;27;20129;-59
2023/09/04 00:26:14;;;;;;;2.65;1.80;;;22.70;99.90;;;;;;4266521;27;20039;-58
2023/09/04 00:28:20;;;;;;;2.67;1.80;;;22.70;99.90;;;;;;4266500;27;20092;-59
2023/09/04 00:30:23;;;;;;;3.55;2.10;;;22.60;99.90;;;;;;4266112;27;20457;-59
2023/09/04 00:32:25;;;;;;;7.18;2.20;;;22.60;99.90;;;;;;4266477;27;20046;-56
2023/09/04 00:34:28;;;;;;;3.03;2.20;;;22.60;99.90;;;;;;4267109;27;20076;-58
2023/09/04 00:36:30;;;;;;;4.88;2.08;;;22.60;99.90;;;;;;4266644;27;20047;-57
2023/09/04 00:38:32;;;;;;;3.78;2.50;;;22.50;99.90;;;;;;4267053;27;20043;-58
2023/09/04 00:40:34;;;;;;;4.00;2.22;;;22.40;99.90;;;;;;4265952;27;20069;-57
2023/09/04 00:42:36;;;;;;;3.67;2.10;;;22.40;99.90;;;;;;4247700;27;20043;-56
2023/09/04 00:44:39;;;;;;;3.13;2.33;;;22.40;99.90;;;;;;4266347;27;20125;-56
2023/09/04 00:46:42;;;;;;;7.22;2.30;;;22.40;99.90;;;;;;4266421;27;20134;-57
2023/09/04 00:48:45;;;;;;;4.25;2.05;;;22.40;99.90;;;;;;4266430;27;20074;-57
2023/09/04 00:50:48;;;;;;;3.22;2.10;;;22.40;99.90;;;;;;4265527;27;20042;-58
2023/09/04 00:52:54;;;;;;;2.17;1.98;;;22.30;99.90;;;;;;4266212;27;20054;-56
2023/09/04 00:54:57;;;;;;;2.95;1.80;;;22.30;99.90;;;;;;4248138;27;20412;-58
2023/09/04 00:57:02;;;;;;;3.65;1.85;;;22.30;99.90;;;;;;4265974;27;20452;-57
2023/09/04 00:59:04;;;;;;;3.13;2.40;;;22.30;99.90;;;;;;4266115;27;20043;-56
2023/09/04 01:01:08;;;;;;;5.45;2.35;;;22.20;99.90;;;;;;4265060;27;20130;-62
2023/09/04 01:03:12;;;;;;;7.60;2.45;;;22.20;99.90;;;;;;4265968;27;20047;-58
2023/09/04 01:05:14;;;;;;;4.32;2.45;;;22.20;99.90;;;;;;4266113;27;20053;-57
2023/09/04 01:07:16;;;;;;;4.13;2.50;;;22.10;99.90;;;;;;4266158;27;20535;-56
2023/09/04 01:09:19;;;;;;;4.40;2.22;;;22.10;99.90;;;;;;4265943;27;20343;-57
2023/09/04 01:11:28;;;;;;;2.95;2.33;;;22.10;99.90;;;;;;4264658;27;20075;-57
2023/09/04 01:13:38;;;;;;;4.88;3.28;;;22.10;99.90;;;;;;4265833;27;20047;-57
2023/09/04 01:15:40;;;;;;;5.90;2.60;;;22.10;99.90;;;;;;4265937;27;20046;-57
2023/09/04 01:17:45;;;;;;;3.10;2.50;;;22.10;99.90;;;;;;4266005;27;20130;-57
2023/09/04 01:19:47;;;;;;;;;;;22.00;99.90;;;;;;4266453;27;20047;-57
2023/09/04 01:21:50;;;;;;;3.53;2.47;;;22.00;99.90;;;;;;4264965;27;20016;-57
2023/09/04 01:23:52;;;;;;;3.35;2.58;;;22.00;99.90;;;;;;4265934;27;20125;-59
2023/09/04 01:26:03;;;;;;;4.25;2.60;;;21.90;99.90;;;;;;4265505;27;20043;-56
2023/09/04 01:28:14;;;;;;;2.80;2.25;;;22.00;99.90;;;;;;4265863;27;20047;-56
2023/09/04 01:30:23;;;;;;;3.88;2.65;;;21.90;99.90;;;;;;4265565;27;20047;-57
2023/09/04 01:32:32;;;;;;;4.57;2.63;;;21.90;99.90;;;;;;4264768;27;20043;-57
2023/09/04 01:34:38;;;;;;;4.55;2.83;;;21.90;99.90;;;;;;4265761;27;20046;-57
2023/09/04 01:36:41;;;;;;;3.70;2.65;;;21.90;99.90;;;;;;4265792;27;20129;-56
2023/09/04 01:38:48;;;;;;;7.25;3.13;;;21.80;99.90;;;;;;4265787;27;20038;-57
2023/09/04 01:40:50;;;;;;;5.40;2.78;;;21.90;99.90;;;;;;4245849;27;20111;-58
2023/09/04 01:42:52;;;;;;;4.65;3.20;;;21.90;99.90;;;;;;4265183;27;20034;-57
2023/09/04 01:44:54;;;;;;;3.90;2.70;;;21.90;99.90;;;;;;4265804;27;20066;-58
2023/09/04 01:46:57;;;;;;;4.60;3.00;;;21.80;99.90;;;;;;4266068;27;20089;-65
2023/09/04 01:48:59;;;;;;;4.60;3.05;;;21.80;99.90;;;;;;4265770;27;20074;-59
2023/09/04 01:51:01;;;;;;;6.47;3.17;;;21.80;99.90;;;;;;4265359;27;20043;-58
2023/09/04 01:53:04;;;;;;;5.97;2.75;;;21.70;99.90;;;;;;4266224;27;20081;-61
2023/09/04 01:55:08;;;;;;;3.67;3.20;;;21.70;99.90;;;;;;4266450;27;20043;-60
2023/09/04 01:57:10;;;;;;;4.20;3.10;;;21.70;99.90;;;;;;4266123;27;20070;-57
2023/09/04 01:59:12;;;;;;;4.15;3.58;;;21.70;99.90;;;;;;4265527;27;20046;-57
2023/09/04 02:01:14;;;;;;;5.30;3.30;;;21.70;99.90;;;;;;4264787;27;20122;-57
2023/09/04 02:03:16;;;;;;;5.97;3.63;;;21.70;99.90;;;;;;4264992;27;20115;-57
2023/09/04 02:05:19;;;;;;;6.32;4.35;;;21.70;99.90;;;;;;4265079;27;20088;-56
2023/09/04 02:07:21;;;;;;;9.05;3.95;;;21.70;99.90;;;;;;4265155;27;20503;-56
2023/09/04 02:09:23;;;;;;;7.30;3.97;;;21.70;99.90;;;;;;4264606;27;20043;-60
2023/09/04 02:11:26;;;;;;;15.00;4.70;;;21.60;99.90;;;;;;4264144;27;20039;-57
2023/09/04 02:13:28;;;;;;;8.23;4.30;;;21.70;99.90;;;;;;4264780;27;20072;-58
2023/09/04 02:15:31;;;;;;;7.32;4.50;;;21.60;99.90;;;;;;4265138;27;20063;-57
2023/09/04 02:17:33;;;;;;;7.25;4.22;;;21.60;99.90;;;;;;4248311;27;20047;-57
2023/09/04 02:19:35;;;;;;;8.93;4.25;;;21.50;99.90;;;;;;4247386;27;20046;-56
2023/09/04 02:21:37;;;;;;;5.35;4.03;;;21.50;99.90;;;;;;4246760;27;20051;-56
2023/09/04 02:23:39;;;;;;;9.85;4.75;;;21.50;99.90;;;;;;4247581;27;20066;-60
2023/09/04 02:25:41;;;;;;;8.30;4.97;;;21.50;99.90;;;;;;4247754;27;20089;-57
2023/09/04 02:27:45;;;;;;;7.88;4.47;;;21.40;99.90;;;;;;4247569;27;20556;-57
2023/09/04 02:29:47;;;;;;;7.50;4.15;;;21.40;99.90;;;;;;4247760;27;20125;-57
2023/09/04 02:31:49;;;;;;;9.30;4.90;;;21.30;99.90;;;;;;4246802;27;20100;-56
2023/09/04 02:33:52;;;;;;;7.53;4.00;;;21.30;99.90;;;;;;4247575;27;20051;-56
2023/09/04 02:35:56;;;;;;;6.78;4.05;;;21.30;99.90;;;;;;4247775;27;20053;-58
2023/09/04 02:37:59;;;;;;;7.70;4.20;;;21.30;99.90;;;;;;4247862;27;20043;-57
2023/09/04 02:40:01;;;;;;;10.18;4.05;;;21.20;99.90;;;;;;4247390;27;20054;-57
2023/09/04 02:42:03;;;;;;;9.13;4.20;;;21.20;99.90;;;;;;4246738;27;20093;-57
2023/09/04 02:44:07;;;;;;;7.18;3.80;;;21.10;99.90;;;;;;4247530;27;20114;-57
2023/09/04 02:46:09;;;;;;;4.13;3.38;;;21.20;99.90;;;;;;4247949;27;20043;-57
2023/09/04 02:48:11;;;;;;;4.63;3.53;;;21.10;99.90;;;;;;4247542;27;20055;-57
2023/09/04 02:50:14;;;;;;;5.68;3.67;;;21.10;99.90;;;;;;4247632;27;20069;-60
2023/09/04 02:52:16;;;;;;;5.70;3.35;;;21.10;99.90;;;;;;4246306;28;20047;-57
2023/09/04 02:54:18;;;;;;;5.22;3.30;;;21.20;99.90;;;;;;4247219;28;20039;-57
2023/09/04 02:56:20;;;;;;;5.18;3.50;;;21.10;99.90;;;;;;4247563;28;20047;-58
2023/09/04 02:58:23;;;;;;;3.90;3.13;;;21.20;99.90;;;;;;4247530;28;20401;-56
2023/09/04 03:00:26;;;;;;;5.57;3.83;;;21.10;99.90;;;;;;4229038;28;20047;-60
2023/09/04 03:02:29;;;;;;;9.05;3.47;;;21.10;99.90;;;;;;4246496;28;20047;-57
2023/09/04 03:04:31;;;;;;;3.75;3.20;;;21.10;99.90;;;;;;4262836;27;20109;-57
2023/09/04 03:06:33;;;;;;;7.50;3.47;;;21.00;99.90;;;;;;4264015;27;20058;-57
2023/09/04 03:08:35;;;;;;;5.60;3.60;;;21.00;99.90;;;;;;4264584;27;20087;-57
2023/09/04 03:10:37;;;;;;;4.53;3.00;;;21.10;99.90;;;;;;4264341;27;20412;-57
2023/09/04 03:12:39;;;;;;;5.07;3.33;;;20.90;99.90;;;;;;4263524;27;20077;-57
2023/09/04 03:14:41;;;;;;;5.15;3.13;;;20.90;99.90;;;;;;4264496;27;20472;-57
2023/09/04 03:16:45;;;;;;;6.07;3.17;;;20.90;99.90;;;;;;4264017;27;20446;-57
2023/09/04 03:18:47;;;;;;;5.00;3.20;;;21.00;99.90;;;;;;4264222;27;20396;-58
2023/09/04 03:20:48;;;;;;;4.80;3.10;;;20.90;99.90;;;;;;4264155;27;20043;-60
2023/09/04 03:22:52;;;;;;;3.95;3.17;;;21.00;99.90;;;;;;4263626;27;20034;-59
2023/09/04 03:24:55;;;;;;;3.40;3.10;;;20.90;99.90;;;;;;4264503;27;20074;-57
2023/09/04 03:26:58;;;;;;;3.13;2.70;;;20.90;99.90;;;;;;4264564;27;20054;-57
2023/09/04 03:29:00;;;;;;;5.68;3.45;;;20.90;99.90;;;;;;4264236;27;20039;-57
2023/09/04 03:31:02;;;;;;;5.43;3.45;;;20.90;99.90;;;;;;4247014;27;20047;-57
2023/09/04 03:33:07;;;;;;;3.88;3.28;;;20.90;99.90;;;;;;4267533;27;20138;-57
2023/09/04 03:35:09;;;;;;;4.95;3.05;;;20.90;99.90;;;;;;4267424;27;20053;-56
2023/09/04 03:37:11;;;;;;;6.05;3.40;;;20.90;99.90;;;;;;4267772;27;20480;-57
2023/09/04 03:39:13;;;;;;;4.57;3.22;;;20.90;99.90;;;;;;4267580;27;20050;-56
2023/09/04 03:41:15;;;;;;;3.92;3.22;;;20.90;99.90;;;;;;4266868;27;20049;-56
2023/09/04 03:43:17;;;;;;;16.05;3.70;;;20.80;99.90;;;;;;4248619;27;20130;-56
2023/09/04 03:45:19;;;;;;;5.25;3.25;;;20.80;99.90;;;;;;4267699;27;20158;-56
2023/09/04 03:47:21;;;;;;;3.67;2.63;;;20.70;99.90;;;;;;4248766;27;20443;-56
2023/09/04 03:49:25;;;;;;;5.75;3.05;;;20.70;99.90;;;;;;4267342;27;20419;-58
2023/09/04 03:51:27;;;;;;;3.05;2.75;;;20.70;99.90;;;;;;4266235;27;20162;-57
2023/09/04 03:53:29;;;;;;;4.05;3.22;;;20.70;99.90;;;;;;4267210;27;20165;-58
2023/09/04 03:55:31;;;;;;;4.38;2.85;;;20.60;99.90;;;;;;4248959;27;20463;-57
2023/09/04 03:57:35;;;;;;;4.88;3.30;;;20.70;99.90;;;;;;4267582;27;20068;-57
2023/09/04 03:59:38;;;;;;;12.23;3.40;;;20.70;99.90;;;;;;4267332;27;20046;-56
2023/09/04 04:01:40;;;;;;;7.75;4.13;;;20.70;99.90;;;;;;4266289;27;20062;-57
2023/09/04 04:03:42;;;;;;;5.55;4.07;;;20.70;99.90;;;;;;4266780;27;20154;-56
2023/09/04 04:05:46;;;;;;;4.78;3.97;;;20.70;99.90;;;;;;4266713;27;20070;-57
2023/09/04 04:07:48;;;;;;;7.68;4.18;;;20.60;99.90;;;;;;4266972;27;20134;-56
2023/09/04 04:09:50;;;;;;;6.90;4.20;;;20.60;99.90;;;;;;4266794;27;20057;-57
2023/09/04 04:11:52;;;;;;;5.40;4.10;;;20.60;99.90;;;;;;4266159;27;20054;-56
2023/09/04 04:13:54;;;;;;;6.63;4.13;;;20.60;99.90;;;;;;4267210;27;20446;-57
2023/09/04 04:15:57;;;;;;;7.35;4.32;;;20.60;99.90;;;;;;4266836;27;20070;-56
2023/09/04 04:17:59;;;;;;;9.45;4.57;;;20.60;99.90;;;;;;4267167;27;20047;-57
2023/09/04 04:20:06;;;;;;;10.07;4.35;;;20.60;99.90;;;;;;4266661;27;20188;-57
2023/09/04 04:22:10;;;;;;;6.88;4.35;;;20.60;99.90;;;;;;4265973;27;20419;-56
2023/09/04 04:24:12;;;;;;;6.00;4.28;;;20.60;99.90;;;;;;4267269;27;20042;-57
2023/09/04 04:26:14;;;;;;;9.35;4.80;;;20.60;99.90;;;;;;4266951;27;20043;-57
2023/09/04 04:28:18;;;;;;;10.52;5.22;;;20.60;99.90;;;;;;4266956;27;20081;-57
2023/09/04 04:30:20;;;;;;;11.23;6.20;;;20.50;99.90;;;;;;4266914;27;20486;-56
2023/09/04 04:32:23;;;;;;;8.82;6.65;;;20.50;99.90;;;;;;4265674;27;20122;-56
2023/09/04 04:34:25;;;;;;;10.88;6.53;;;20.40;99.90;;;;;;4266616;27;20043;-56
2023/09/04 04:36:27;;;;;;;11.82;6.57;;;20.40;99.90;;;;;;4266545;27;20043;-56
2023/09/04 04:38:31;;;;;;;11.10;6.22;;;20.30;99.90;;;;;;4266762;27;20043;-57
2023/09/04 04:40:33;;;;;;;8.90;6.32;;;20.30;99.90;;;;;;4266552;27;20053;-57
2023/09/04 04:42:35;;;;;;;9.88;6.45;;;20.20;99.90;;;;;;4265413;27;20047;-57
2023/09/04 04:44:37;;;;;;;13.00;7.43;;;20.20;99.90;;;;;;4266497;27;20054;-56
2023/09/04 04:46:40;;;;;;;18.35;7.10;;;20.20;99.90;;;;;;4266356;27;20070;-57
2023/09/04 04:48:42;;;;;;;9.48;6.30;;;20.20;99.90;;;;;;4265870;27;20061;-56
2023/09/04 04:50:44;;;;;;;7.53;5.70;;;20.20;99.90;;;;;;4266296;27;20054;-56
2023/09/04 04:52:46;;;;;;;7.95;5.13;;;20.20;99.90;;;;;;4265169;27;20043;-57
2023/09/04 04:54:50;;;;;;;7.30;5.05;;;20.10;99.90;;;;;;4266248;27;20073;-56
2023/09/04 04:56:52;;;;;;;10.40;6.05;;;20.20;99.90;;;;;;4266416;27;20039;-55
2023/09/04 04:58:54;;;;;;;12.80;5.90;;;20.10;99.90;;;;;;4266492;27;20096;-56
2023/09/04 05:00:57;;;;;;;8.40;5.32;;;20.10;99.90;;;;;;4266210;27;20277;-56
2023/09/04 05:02:59;;;;;;;5.85;4.90;;;20.10;99.90;;;;;;4264905;27;20051;-56
2023/09/04 05:05:01;;;;;;;9.98;5.28;;;20.00;99.90;;;;;;4266040;27;20047;-56
2023/09/04 05:07:04;;;;;;;10.95;6.20;;;20.00;99.90;;;;;;4266179;27;20117;-55
2023/09/04 05:09:06;;;;;;;12.40;5.47;;;20.00;99.90;;;;;;4266133;27;20122;-57
2023/09/04 05:11:09;;;;;;;11.20;6.10;;;20.00;99.90;;;;;;4266056;27;20043;-57
2023/09/04 05:13:12;;;;;;;7.75;4.95;;;20.00;99.90;;;;;;4265011;27;20051;-57
2023/09/04 05:15:14;;;;;;;9.25;4.70;;;20.00;99.90;;;;;;4266036;27;20039;-56
2023/09/04 05:17:16;;;;;;;14.10;5.30;;;20.00;99.90;;;;;;4265420;27;20093;-57
2023/09/04 05:19:20;;;;;;;5.45;4.93;;;20.00;99.90;;;;;;4265992;27;20047;-56
2023/09/04 05:21:23;;;;;;;7.47;4.57;;;20.00;99.90;;;;;;4265645;27;20113;-57
2023/09/04 05:23:25;;;;;;;8.15;5.03;;;20.00;99.90;;;;;;4265308;27;20515;-60
2023/09/04 05:25:27;;;;;;;7.88;4.93;;;20.00;99.90;;;;;;4265753;27;20053;-55
2023/09/04 05:27:31;;;;;;;10.48;5.18;;;20.00;99.90;;;;;;4266101;27;20397;-56
2023/09/04 05:29:33;;;;;;;8.73;5.25;;;20.10;99.90;;;;;;4265530;27;20126;-56
2023/09/04 05:31:35;;;;;;;9.27;5.85;;;20.00;99.90;;;;;;4264608;27;20074;-56
2023/09/04 05:33:37;;;;;;;10.07;5.97;;;20.00;99.90;;;;;;4265445;27;20365;-56
2023/09/04 05:35:39;;;;;;;9.75;5.50;;;20.00;99.90;;;;;;4265418;27;20054;-56
2023/09/04 05:37:41;;;;;;;9.05;5.47;;;20.00;99.90;;;;;;4265696;27;20099;-56
2023/09/04 05:39:43;;;;;;;12.68;5.55;;;20.00;99.90;;;;;;4265798;27;20054;-56
2023/09/04 05:41:45;;;;;;;7.03;4.90;;;20.10;99.90;;;;;;4264863;27;20578;-56
2023/09/04 05:43:49;;;;;;;8.63;5.70;;;20.10;99.90;;;;;;4247268;27;20054;-56
2023/09/04 05:45:51;;;;;;;10.00;5.40;;;20.00;99.90;;;;;;4247149;27;20080;-56
2023/09/04 05:47:53;;;;;;;10.55;5.20;;;19.90;99.90;;;;;;4266336;27;20059;-56
2023/09/04 05:49:55;;;;;;;12.43;5.65;;;19.90;99.90;;;;;;4266532;27;20403;-57
2023/09/04 05:51:57;;;;;;;10.43;5.70;;;19.90;99.90;;;;;;4265333;27;20118;-56
2023/09/04 05:53:59;;;;;;;12.50;5.40;;;19.90;99.90;;;;;;4264776;27;20483;-57
2023/09/04 05:56:03;;;;;;;7.15;4.60;;;19.80;99.90;;;;;;4265609;27;20050;-57
2023/09/04 05:58:05;;;;;;;11.23;5.97;;;19.90;99.90;;;;;;4265482;27;20397;-57
2023/09/04 06:00:10;;;;;;;10.70;5.20;;;19.90;99.90;;;;;;4246438;27;20449;-56
2023/09/04 06:02:12;;;;;;;11.13;5.82;;;19.90;99.90;;;;;;4264302;27;20042;-57
2023/09/04 06:04:14;;;;;;;10.45;5.57;;;20.00;99.90;;;;;;4265209;27;20454;-56
2023/09/04 06:06:16;;;;;;;7.93;5.88;;;19.90;99.90;;;;;;4265398;27;20062;-56
2023/09/04 06:08:19;;;;;;;11.57;6.20;;;19.90;99.90;;;;;;4265375;27;20038;-56
2023/09/04 06:10:21;;;;;;;15.43;6.50;;;20.00;99.90;;;;;;4265172;27;20449;-57
2023/09/04 06:12:23;;;;;;;15.27;6.03;;;19.90;99.90;;;;;;4264109;27;20042;-56
2023/09/04 06:14:25;;;;;;;16.55;6.60;;;20.00;99.90;;;;;;4265796;27;20095;-57
2023/09/04 06:16:28;;;;;;;22.10;6.45;;;20.00;99.90;;;;;;4265171;27;20070;-59
2023/09/04 06:18:32;;;;;;;9.32;6.07;;;20.10;99.90;;;;;;4265211;27;20103;-57
2023/09/04 06:20:34;;;;;;;11.98;6.03;;;20.10;99.90;;;;;;4265098;27;20042;-56
2023/09/04 06:22:36;;;;;;;11.02;6.10;;;20.10;99.90;;;;;;4264012;27;20043;-57
2023/09/04 06:24:38;;;;;;;12.55;6.32;;;20.10;99.90;;;;;;4265125;27;20125;-56
2023/09/04 06:26:40;;;;;;;12.95;5.85;;;20.10;99.90;;;;;;4264775;27;20530;-57
2023/09/04 06:28:42;;;;;;;12.10;5.72;;;20.10;99.90;;;;;;4264662;27;20042;-56
2023/09/04 06:30:45;;;;;;;9.43;6.15;;;20.10;99.90;;;;;;4245943;27;20135;-56
2023/09/04 06:32:48;;;;;;;9.85;6.03;;;20.10;99.90;;;;;;4263744;27;20039;-57
2023/09/04 06:34:51;;;;;;;16.17;6.35;;;20.10;99.90;;;;;;4264943;27;20461;-56
2023/09/04 06:36:53;;;;;;;10.95;5.38;;;20.10;99.90;;;;;;4264823;27;20085;-56
2023/09/04 06:38:55;;;;;;;12.57;6.18;;;20.10;99.90;;;;;;4264724;27;20043;-56
2023/09/04 06:40:59;;;;;;;12.43;5.85;;;20.10;99.90;;;;;;4264570;27;20066;-55
2023/09/04 06:43:02;;;;;;;12.82;6.32;;;20.20;99.90;;;;;;4264021;27;20039;-56
2023/09/04 06:45:05;;;;;;;10.02;5.32;;;20.20;99.90;;;;;;4264136;27;20066;-56
2023/09/04 06:47:09;;;;;;;11.77;6.13;;;20.20;99.90;;;;;;4264536;27;20043;-56
2023/09/04 06:49:13;;;;;;;14.98;5.90;;;20.20;99.90;;;;;;4264770;27;20055;-56
2023/09/04 06:51:16;;;;;;;12.50;6.20;;;20.10;99.90;;;;;;4264701;27;20066;-58
2023/09/04 06:53:18;;;;;;;10.93;5.53;;;20.10;99.90;;;;;;4263754;27;20137;-56
2023/09/04 06:55:20;;;;;;;8.25;6.10;;;20.10;99.90;;;;;;4265116;27;20057;-61
2023/09/04 06:57:22;;;;;;;12.55;5.97;;;20.20;99.90;;;;;;4265247;27;20060;-57
2023/09/04 06:59:24;;;;;;;12.63;6.38;;;20.20;99.90;;;;;;4264325;27;20046;-56
2023/09/04 07:01:26;;;;;;;11.90;5.60;;;20.10;99.90;;;;;;4264542;27;20125;-54
2023/09/04 07:03:29;;;;;;;8.15;5.95;;;20.10;99.90;;;;;;4263676;27;20054;-56
2023/09/04 07:05:32;;;;;;;12.00;6.40;;;20.20;99.90;;;;;;4267075;27;20054;-55
2023/09/04 07:07:37;;;;;;;9.35;5.90;;;20.20;99.90;;;;;;4268174;27;20043;-55
2023/09/04 07:09:39;;;;;;;10.98;5.40;;;20.20;99.90;;;;;;4268188;27;20053;-56
2023/09/04 07:11:41;;;;;;;11.75;6.30;;;20.30;99.90;;;;;;4268008;27;20047;-56
2023/09/04 07:13:43;;;;;;;11.50;6.38;;;20.30;99.90;;;;;;4267483;27;20364;-56
2023/09/04 07:15:45;;;;;;;15.18;6.70;;;20.30;99.90;;;;;;4267850;27;20396;-55
2023/09/04 07:17:48;;;;;;;19.90;7.13;;;20.30;99.90;;;;;;4267943;27;20065;-55
2023/09/04 07:19:50;;;;;;;9.35;5.68;;;20.30;99.90;;;;;;4267973;27;20043;-56
2023/09/04 07:21:53;;;;;;;21.38;6.57;;;20.30;99.90;;;;;;4267097;27;20063;-57
2023/09/04 07:23:55;;;;;;;17.05;6.35;;;20.30;99.90;;;;;;4268604;27;20043;-57
2023/09/04 07:25:57;;;;;;;16.70;5.20;;;20.30;99.90;;;;;;4269165;27;20043;-61
2023/09/04 07:27:59;;;;;;;8.55;5.55;;;20.30;99.90;;;;;;4268836;27;20047;-58
2023/09/04 07:30:02;;;;;;;11.98;5.70;;;20.40;99.90;;;;;;4269248;27;20431;-57
2023/09/04 07:32:05;;;;;;;15.27;5.90;;;20.50;99.90;;;;;;4268098;27;20077;-58
2023/09/04 07:34:08;;;;;;;11.95;5.30;;;20.50;99.90;;;;;;4269043;27;20089;-57
2023/09/04 07:36:10;;;;;;;14.43;5.60;;;20.60;99.90;;;;;;4268708;27;20134;-57
2023/09/04 07:38:13;;;;;;;14.80;5.63;;;20.60;99.90;;;;;;4268275;27;20046;-56
2023/09/04 07:40:16;;;;;;;12.15;5.18;;;20.70;99.90;;;;;;4249838;27;20074;-56
2023/09/04 07:42:18;;;;;;;10.23;5.07;;;20.80;99.90;;;;;;4266730;27;20480;-58
2023/09/04 07:44:20;;;;;;;13.07;5.35;;;20.90;99.90;;;;;;4267879;27;20062;-57
2023/09/04 07:46:22;;;;;;;9.75;5.30;;;21.00;99.90;;;;;;4249227;27;20509;-61
2023/09/04 07:48:24;;;;;;;8.15;4.88;;;21.00;99.90;;;;;;4267310;27;20051;-59
2023/09/04 07:50:26;;;;;;;11.18;5.13;;;21.00;99.90;;;;;;4267666;27;20050;-59
2023/09/04 07:52:28;;;;;;;9.00;4.93;;;21.10;99.90;;;;;;4266476;27;20043;-57
2023/09/04 07:54:32;;;;;;;9.65;5.43;;;21.10;99.90;;;;;;4267442;27;20050;-56
2023/09/04 07:56:34;;;;;;;15.63;4.90;;;21.20;99.90;;;;;;4266840;27;20117;-57
2023/09/04 07:58:39;;;;;;;;;;;21.30;99.90;;;;;;4267739;27;20042;-59
2023/09/04 08:00:46;;;;;;;12.80;4.63;;;21.40;99.90;;;;;;4267409;27;19992;-59
2023/09/04 08:02:49;;;;;;;7.15;5.03;;;21.40;99.90;;;;;;4266370;27;20042;-60
2023/09/04 08:04:52;;;;;;;10.40;4.90;;;21.50;99.90;;;;;;4267369;27;20476;-57
2023/09/04 08:06:55;;;;;;;17.58;5.82;;;21.60;99.90;;;;;;4267375;27;20050;-57
2023/09/04 08:08:57;;;;;;;26.77;6.53;;;21.50;99.90;;;;;;4267794;27;20396;-60
2023/09/04 08:11:01;;;;;;;10.82;5.10;;;21.60;99.90;;;;;;4267023;27;20049;-61
2023/09/04 08:13:03;;;;;;;9.18;4.72;;;21.70;99.90;;;;;;4266019;27;20479;-59
2023/09/04 08:15:08;;;;;;;13.20;5.05;;;21.70;99.70;;;;;;4267185;27;20070;-60
2023/09/04 08:17:10;;;;;;;11.20;4.35;;;21.90;99.60;;;;;;4266213;27;20050;-59
2023/09/04 08:19:12;;;;;;;10.25;4.35;;;21.90;99.60;;;;;;4266817;27;20125;-59
2023/09/04 08:21:14;;;;;;;8.40;5.05;;;22.00;99.40;;;;;;4266599;27;20404;-59
2023/09/04 08:23:16;;;;;;;10.98;4.47;;;22.00;99.20;;;;;;4266080;27;20043;-59
2023/09/04 08:25:18;;;;;;;13.13;4.95;;;22.10;99.20;;;;;;4266431;27;20053;-59
2023/09/04 08:27:22;;;;;;;13.90;4.60;;;22.10;99.10;;;;;;4266908;27;20059;-58
2023/09/04 08:29:24;;;;;;;15.65;4.97;;;22.20;99.10;;;;;;4266789;27;20517;-59
2023/09/04 08:31:26;;;;;;;17.73;4.65;;;22.30;99.10;;;;;;4266849;27;20130;-60
2023/09/04 08:33:28;;;;;;;12.10;4.60;;;22.40;99.00;;;;;;4265676;27;20047;-59
2023/09/04 08:35:33;;;;;;;13.23;4.40;;;22.50;98.90;;;;;;4266644;27;20091;-59
2023/09/04 08:37:35;;;;;;;8.55;4.43;;;22.60;98.40;;;;;;4266778;27;20049;-59
2023/09/04 08:39:37;;;;;;;15.02;4.30;;;22.60;98.50;;;;;;4266463;27;20072;-57
2023/09/04 08:41:41;;;;;;;6.43;4.30;;;22.60;98.50;;;;;;4248239;27;20055;-57
2023/09/04 08:43:47;;;;;;;13.70;4.90;;;22.70;98.60;;;;;;4265601;27;20404;-58
2023/09/04 08:45:50;;;;;;;14.35;4.38;;;22.70;98.40;;;;;;4248223;27;20122;-57
2023/09/04 08:47:54;;;;;;;11.10;4.30;;;22.70;98.40;;;;;;4266218;27;20168;-57
2023/09/04 08:49:59;;;;;;;15.23;4.78;;;22.80;98.40;;;;;;4266571;27;20039;-57
2023/09/04 08:52:02;;;;;;;6.78;4.15;;;22.80;98.30;;;;;;4266203;27;20117;-58
2023/09/04 08:54:04;;;;;;;11.85;4.30;;;22.90;98.40;;;;;;4265041;27;20038;-56
2023/09/04 08:56:07;;;;;;;34.40;7.28;;;22.90;98.30;;;;;;4266514;27;20385;-59
2023/09/04 08:58:09;;;;;;;33.30;6.63;;;22.90;98.20;;;;;;4266560;27;20095;-57
2023/09/04 09:00:14;;;;;;;32.03;6.82;;;23.00;98.20;;;;;;4267063;27;20046;-57
2023/09/04 09:02:16;;;;;;;20.20;4.95;;;23.10;98.00;;;;;;4267307;27;20073;-58
2023/09/04 09:04:20;;;;;;;14.07;4.53;;;23.10;97.90;;;;;;4266979;27;20054;-57
2023/09/04 09:06:23;;;;;;;32.63;5.93;;;23.20;98.00;;;;;;4266151;27;20046;-58
2023/09/04 09:08:26;;;;;;;37.08;5.90;;;23.30;98.00;;;;;;4265912;27;20077;-57
2023/09/04 09:10:30;;;;;;;26.67;6.47;;;23.30;97.80;;;;;;4265923;27;20043;-56
2023/09/04 09:12:32;;;;;;;33.08;6.18;;;23.40;97.80;;;;;;4264993;27;20051;-57
2023/09/04 09:14:34;;;;;;;15.55;4.97;;;23.50;97.70;;;;;;4266093;27;20038;-58
2023/09/04 09:16:37;;;;;;;16.05;4.60;;;23.60;97.30;;;;;;4265770;27;20062;-57
2023/09/04 09:18:42;;;;;;;7.43;3.70;;;23.60;97.40;;;;;;4265786;27;20046;-57
2023/09/04 09:20:45;;;;;;;11.68;4.15;;;23.70;97.40;;;;;;4265881;27;20046;-58
2023/09/04 09:22:50;;;;;;;18.20;4.13;;;23.70;97.00;;;;;;4264962;27;20133;-57
2023/09/04 09:24:54;;;;;;;14.82;4.57;;;23.70;97.10;;;;;;4265335;27;20050;-57
2023/09/04 09:26:56;;;;;;;26.37;4.90;;;23.80;97.30;;;;;;4266123;27;20096;-58
2023/09/04 09:29:02;;;;;;;9.57;4.25;;;23.70;97.20;;;;;;4264371;27;20486;-58
2023/09/04 09:31:06;;;;;;;14.32;4.45;;;23.90;97.10;;;;;;4266050;27;20120;-57
2023/09/04 09:33:15;;;;;;;37.83;6.90;;;24.00;97.00;;;;;;4264804;27;20038;-60
2023/09/04 09:35:20;;;;;;;15.52;4.68;;;24.00;96.70;;;;;;4265661;27;20130;-60
2023/09/04 09:37:24;;;;;;;32.50;6.68;;;24.10;96.90;;;;;;4265944;27;20066;-60
2023/09/04 09:39:26;;;;;;;10.80;4.20;;;24.20;96.80;;;;;;4265469;27;20057;-60
2023/09/04 09:41:29;;;;;;;13.65;4.55;;;24.20;96.40;;;;;;4247212;27;20126;-59
2023/09/04 09:43:31;;;;;;;16.88;4.50;;;24.30;96.60;;;;;;4264483;27;20054;-60
2023/09/04 09:45:35;;;;;;;10.77;3.97;;;24.30;96.50;;;;;;4247315;27;20054;-59
2023/09/04 09:47:38;;;;;;;13.68;4.25;;;24.30;96.40;;;;;;4265484;27;20047;-58
2023/09/04 09:49:43;;;;;;;7.07;3.55;;;24.40;96.40;;;;;;4265389;27;20456;-57
2023/09/04 09:51:51;;;;;;;12.00;4.13;;;24.50;96.40;;;;;;4265496;27;20126;-57
2023/09/04 09:53:54;;;;;;;9.95;4.13;;;24.50;96.20;;;;;;4263808;27;20039;-56
2023/09/04 09:55:57;;;;;;;12.43;3.60;;;24.60;96.10;;;;;;4265193;27;20045;-57
2023/09/04 09:58:00;;;;;;;16.10;3.60;;;24.70;96.20;;;;;;4265288;27;20042;-57
2023/09/04 10:00:02;;;;;;;15.27;4.47;;;24.70;95.90;;;;;;4265296;27;20053;-56
2023/09/04 10:02:05;;;;;;;10.05;3.40;;;24.70;95.80;;;;;;4265406;27;20119;-57
2023/09/04 10:04:08;;;;;;;4.97;3.13;;;24.80;95.70;;;;;;4264154;27;20138;-60
2023/09/04 10:06:15;;;;;;;9.30;3.50;;;24.80;95.80;;;;;;4265420;27;20054;-59
2023/09/04 10:08:18;;;;;;;7.20;3.20;;;25.00;95.60;;;;;;4265022;27;20377;-58
2023/09/04 10:10:20;;;;;;;4.63;3.20;;;25.00;95.70;;;;;;4265146;27;20556;-59
2023/09/04 10:12:30;;;;;;;9.60;3.40;;;25.00;95.40;;;;;;4264624;27;20047;-60
2023/09/04 10:14:38;;;;;;;10.30;2.95;;;25.10;95.40;;;;;;4264733;27;20089;-57
2023/09/04 10:16:45;;;;;;;4.82;3.35;;;25.10;95.30;;;;;;4264766;27;20085;-57
2023/09/04 10:18:53;;;;;;;8.50;4.00;;;25.20;95.60;;;;;;4264825;27;20063;-56
2023/09/04 10:20:56;;;;;;;7.82;3.83;;;25.40;95.30;;;;;;4264849;27;20071;-57
2023/09/04 10:23:07;;;;;;;16.33;4.03;;;25.40;95.00;;;;;;4245474;27;20047;-60
2023/09/04 10:25:20;;;;;;;11.32;3.45;;;25.50;95.00;;;;;;4264783;27;20050;-59
2023/09/04 10:27:24;;;;;;;11.25;3.90;;;25.40;94.90;;;;;;4265043;27;20048;-59
2023/09/04 10:29:31;;;;;;;11.00;3.35;;;25.50;94.90;;;;;;4264810;27;20510;-59
2023/09/04 10:31:35;;;;;;;12.60;3.63;;;25.50;95.00;;;;;;4264785;27;20099;-57
2023/09/04 10:33:37;;;;;;;10.00;3.65;;;25.60;94.90;;;;;;4263823;27;20051;-57
2023/09/04 10:35:40;;;;;;;12.15;3.45;;;25.70;94.50;;;;;;4264456;27;20508;-58
2023/09/04 10:37:43;;;;;;;6.00;3.03;;;25.70;94.60;;;;;;4265177;27;20074;-60